UAR weather

Bouarfa Airport
Bouarfa, Figuig Province, Morocco

Public forecast

Using degrees Celsius for public forecast. Weather courtesy of forecast.io.

METAR (pilot weather report)

Closest report is B├ęchar Boudghene Ben Ali Lotfi Airport, 54.2 nm (100.3 km) SSW. Retrieved 2019/07/15 19:00 UTC (15 minutes ago):

DAOR 151900Z 03004KT 8000 NSC 40/// Q1012

TAF (pilot weather forecast)

Forecast is more than 12 hours old.

Retrieved 2010/10/04 22:00 UTC (9 years ago):

TAF GMFB 042200Z 0500/0606 26008KT 9999 SCT010 BKN033 BKN100 PROB30 TEMPO 0500/0505 RA BECMG 0510/0514 32010KT BKN033 BKN100